createdAt,value
2023-11-27T00:21:40.389Z,98.89
2023-11-27T00:51:40.474Z,98.89
2023-11-27T01:21:40.388Z,98.89
2023-11-27T01:51:40.384Z,98.89
2023-11-27T02:21:40.408Z,98.89
2023-11-27T02:51:40.406Z,98.89
2023-11-27T03:21:40.402Z,98.89
2023-11-27T03:51:40.407Z,98.89
2023-11-27T04:21:40.419Z,98.89
2023-11-27T04:51:40.430Z,98.89
2023-11-27T05:21:40.413Z,98.89
2023-11-27T05:51:40.433Z,98.89
2023-11-27T06:21:40.422Z,98.89
2023-11-27T06:51:40.430Z,98.89
2023-11-27T07:21:40.459Z,98.89
2023-11-27T07:51:40.453Z,98.89
2023-11-27T08:21:40.454Z,98.89
2023-11-27T08:51:40.464Z,98.89
2023-11-27T09:21:40.468Z,98.89
2023-11-27T09:51:40.474Z,98.89
2023-11-27T10:21:40.503Z,98.89
2023-11-27T10:51:40.483Z,98.89
2023-11-27T11:21:40.481Z,98.89
2023-11-27T11:51:40.496Z,98.89
2023-11-27T12:21:40.484Z,98.89
2023-11-27T12:51:40.493Z,98.89
2023-11-27T13:21:40.492Z,94.57
2023-11-27T13:51:40.488Z,94.7
2023-11-27T14:21:40.501Z,94.05
2023-11-27T14:51:41.236Z,94.48
2023-11-27T15:21:40.511Z,95.26
2023-11-27T15:51:42.648Z,95.71
2023-11-27T16:21:40.527Z,95.99
2023-11-27T16:51:40.535Z,95.98
2023-11-27T17:21:43.045Z,95.81
2023-11-27T17:51:40.548Z,95.87
2023-11-27T18:21:40.558Z,96.25
2023-11-27T18:51:40.568Z,96.6
2023-11-27T19:21:40.593Z,96.54
2023-11-27T19:51:40.568Z,96.47
2023-11-27T20:21:40.571Z,96.75
2023-11-27T20:51:40.595Z,96.93
2023-11-27T21:21:40.565Z,97.06
2023-11-27T21:51:40.600Z,96.82
2023-11-27T22:21:40.590Z,96.87
2023-11-27T22:51:40.585Z,97.13
2023-11-27T23:21:40.610Z,97.21
2023-11-27T23:51:40.604Z,97.02
